Albertville, MN

10:42 PM CST on March 02, 2015 (GMT -0600)
Royal Meadows | Change Station
CLOSE
Current Station
Personal Weather Station
Location: Saint Michael, MN
Elevation: 935 ft
Nearby Weather Stations
Active Advisory: Winter Weather Advisory

Elev 935 ft 45.22 °N, 93.69 °W | Updated 40 seconds ago

Overcast
Overcast
21.7 °F
Feels Like 11 °F
N
9.8
Wind Variable Wind from SE
Gusts 10.7 mph

Today
High -- | Low -- °F
--% Chance of Precip.
Yesterday
High -- | Low -- °F
Precip. -- in
6:51 AM 6:02 PM
Waxing Gibbous, 94% visible
Pressure 30.05 in
Visibility 10.0 miles
Clouds Overcast 7000 ft
Windchill 11 °F
Dew Point 7 °F
Humidity 52%
Rainfall 0.00 in
Snow Depth Not available.
UV 0 out of 12
Pollen .40 out of 12
Air Quality Not available.
Flu Activity Not available.
METAR KCFE 030434Z AUTO 14009KT 10SM OVC070 M06/M11 A3005 RMK AO2 T10561107

More Conditions Fewer Conditions

Pressure 30.05 in
Visibility 10.0 miles
Clouds Overcast 7000 ft
Windchill 11 °F
Dew Point 7 °F
Humidity 52%
Rainfall 0.00 in
Snow Depth Not available.
UV 0 out of 12
Pollen .40 out of 12
Air Quality Not available.
Flu Activity Not available.
METAR KCFE 030434Z AUTO 14009KT 10SM OVC070 M06/M11 A3005 RMK AO2 T10561107

More Conditions Fewer Conditions

10-Day Weather Forecast

Almanac

Astronomy

Mar. 02, 2015 Rise Set
Actual Time
Civil Twilight
Nautical Twilight
Astronomical Twilight
Moon
Length of Visible Light
Length of Day
Tomorrow will be .
, % of the Moon is Illuminated

Today's Extremes

State Highs State Lows

Community

WunderPhotos

Upload Photos

1,802,064 photos uploaded!

WunderBlogs® & News

Nearby

Air Quality

  Air Quality AQ Index Pollutant
Not available.

Snow Depth

Station Depth Elevation

Earthquake Activity

City Distance Mag. Time & Date
Minimum magnitude displayed is 2.5.

Coastal Water Temperatures

Place Temperature

Nearby Weather Stations

Winter Weather Advisory
Statement as of 9:45 PM CST on March 02, 2015

... Winter Weather Advisory remains in effect from 3 am to 9 PM
CST Tuesday...

* timing... snow will develop early Tuesday morning and taper off
Tuesday afternoon... as northwest winds increase behind a cold
front. The strong winds will produce areas of blowing snow
through Tuesday evening.

* Snow accumulations... 2 to 4 inches.

* Winds/visibility... wind gusts around 35 mph will produce areas
of blowing snow and visibilities less than one mile in open
areas.

* Impacts... travel may be difficult. The morning and afternoon
rush should be impacted by the snow and blowing snow.

Precautionary/preparedness actions...

A Winter Weather Advisory for snow and blowing snow means that
visibilities will be limited due to a combination of falling and
blowing snow. Use caution when traveling... especially in open
areas.